Accueil
METAR-TAF:

METAR-TAF

Aéroports :

Bennettsville, Caroline du Sud, États-Unis

latitude: 34-37-18N, longitude: 079-44-04W, altitude: 45 m

Observation

Le bulletin a été fait il y a 1 heure et 8 minutes, à 14:55 UTC
Vent 5 kt de nord/nord-est
Température 3°C
Humidité 70%
Pression 1030 hPa
Visibilité: 16.1 km
Nuages épars à une hauteur de 6000 ft
Nuages fragmentés à une hauteur de 7000 ft

METAR: KBBP 141455Z AUTO 02005KT 10SM SCT060 BKN070 03/M02 A3041 RMK AO2

Heure: 11:03 (16:03 UTC)


TAF: absent

Observations et prévisions météorologiques de plus de 4000 aéroports (messages METAR et TAF).

Les stations disponibles sont représentées par des disques jaunes et rouges sur la carte.

Passer la souris dessus pour voir le nom de la station.

Cliquer dessus pour voir les observations et prévisions météorologiques.

Pour changer de carte: cliquez sur les boutons verts avec une croix noire pour zoomer, sur le bouton vert avec un tiret pour effectuer un zoom arrière, ou sur les flèches vertes pour les cartes adjacentes.


METAR-TAF: